sensor_id;sensor_type;location;lat;lon;timestamp;temperature;humidity
16829;DHT22;8531;48.078;11.968;2022-09-09T00:00:33;15.70;99.90
16829;DHT22;8531;48.078;11.968;2022-09-09T00:03:22;15.70;99.90
16829;DHT22;8531;48.078;11.968;2022-09-09T00:11:19;15.50;99.90
16829;DHT22;8531;48.078;11.968;2022-09-09T00:13:52;15.60;99.90
16829;DHT22;8531;48.078;11.968;2022-09-09T00:16:25;15.60;99.90
16829;DHT22;8531;48.078;11.968;2022-09-09T00:21:37;15.40;99.90
16829;DHT22;8531;48.078;11.968;2022-09-09T00:24:32;15.30;99.90
16829;DHT22;8531;48.078;11.968;2022-09-09T00:32:39;15.20;99.90
16829;DHT22;8531;48.078;11.968;2022-09-09T00:35:29;15.20;99.90
16829;DHT22;8531;48.078;11.968;2022-09-09T00:38:00;15.20;99.90
16829;DHT22;8531;48.078;11.968;2022-09-09T00:40:32;15.20;99.90
16829;DHT22;8531;48.078;11.968;2022-09-09T00:43:26;15.20;99.90
16829;DHT22;8531;48.078;11.968;2022-09-09T00:51:13;15.20;99.90
16829;DHT22;8531;48.078;11.968;2022-09-09T00:54:10;15.20;99.90
16829;DHT22;8531;48.078;11.968;2022-09-09T00:57:01;15.30;99.90
16829;DHT22;8531;48.078;11.968;2022-09-09T00:59:49;15.40;99.90
16829;DHT22;8531;48.078;11.968;2022-09-09T01:02:28;15.40;99.90
16829;DHT22;8531;48.078;11.968;2022-09-09T01:05:13;15.40;99.90
16829;DHT22;8531;48.078;11.968;2022-09-09T01:07:44;15.50;99.90
16829;DHT22;8531;48.078;11.968;2022-09-09T01:13:07;15.50;99.90
16829;DHT22;8531;48.078;11.968;2022-09-09T01:15:36;15.50;99.90
16829;DHT22;8531;48.078;11.968;2022-09-09T01:18:12;15.50;99.90
16829;DHT22;8531;48.078;11.968;2022-09-09T01:21:14;15.60;99.90
16829;DHT22;8531;48.078;11.968;2022-09-09T01:26:37;15.50;99.90
16829;DHT22;8531;48.078;11.968;2022-09-09T01:29:09;15.60;99.90
16829;DHT22;8531;48.078;11.968;2022-09-09T01:31:40;15.60;99.90
16829;DHT22;8531;48.078;11.968;2022-09-09T01:34:14;15.60;99.90
16829;DHT22;8531;48.078;11.968;2022-09-09T01:39:17;15.70;99.90
16829;DHT22;8531;48.078;11.968;2022-09-09T01:41:43;15.80;99.90
16829;DHT22;8531;48.078;11.968;2022-09-09T01:44:10;15.80;99.90
16829;DHT22;8531;48.078;11.968;2022-09-09T01:46:36;15.90;99.90
16829;DHT22;8531;48.078;11.968;2022-09-09T01:49:04;15.90;99.90
16829;DHT22;8531;48.078;11.968;2022-09-09T01:51:31;15.90;99.90
16829;DHT22;8531;48.078;11.968;2022-09-09T01:53:56;15.80;99.90
16829;DHT22;8531;48.078;11.968;2022-09-09T01:57:03;15.80;99.90
16829;DHT22;8531;48.078;11.968;2022-09-09T02:02:18;15.70;99.90
16829;DHT22;8531;48.078;11.968;2022-09-09T02:04:52;15.60;99.90
16829;DHT22;8531;48.078;11.968;2022-09-09T02:07:39;15.60;99.90
16829;DHT22;8531;48.078;11.968;2022-09-09T02:12:47;15.70;99.90
16829;DHT22;8531;48.078;11.968;2022-09-09T02:15:55;15.70;99.90
16829;DHT22;8531;48.078;11.968;2022-09-09T02:18:15;15.70;99.90
16829;DHT22;8531;48.078;11.968;2022-09-09T02:20:44;15.80;99.90
16829;DHT22;8531;48.078;11.968;2022-09-09T02:23:11;15.80;99.90
16829;DHT22;8531;48.078;11.968;2022-09-09T02:25:39;15.80;99.90
16829;DHT22;8531;48.078;11.968;2022-09-09T02:28:07;15.60;99.90
16829;DHT22;8531;48.078;11.968;2022-09-09T02:30:35;15.50;99.90
16829;DHT22;8531;48.078;11.968;2022-09-09T02:33:05;15.30;99.90
16829;DHT22;8531;48.078;11.968;2022-09-09T02:35:32;15.30;99.90
16829;DHT22;8531;48.078;11.968;2022-09-09T02:38:05;15.30;99.90
16829;DHT22;8531;48.078;11.968;2022-09-09T02:40:32;15.30;99.90
16829;DHT22;8531;48.078;11.968;2022-09-09T02:42:58;15.30;99.90
16829;DHT22;8531;48.078;11.968;2022-09-09T02:45:29;15.40;99.90
16829;DHT22;8531;48.078;11.968;2022-09-09T02:47:59;15.50;99.90
16829;DHT22;8531;48.078;11.968;2022-09-09T02:50:42;15.50;99.90
16829;DHT22;8531;48.078;11.968;2022-09-09T02:53:26;15.60;99.90
16829;DHT22;8531;48.078;11.968;2022-09-09T02:56:12;15.60;99.90
16829;DHT22;8531;48.078;11.968;2022-09-09T02:58:40;15.60;99.90
16829;DHT22;8531;48.078;11.968;2022-09-09T03:01:05;15.60;99.90
16829;DHT22;8531;48.078;11.968;2022-09-09T03:03:31;15.60;99.90
16829;DHT22;8531;48.078;11.968;2022-09-09T03:05:57;15.50;99.90
16829;DHT22;8531;48.078;11.968;2022-09-09T03:08:23;15.50;99.90
16829;DHT22;8531;48.078;11.968;2022-09-09T03:10:49;15.50;99.90
16829;DHT22;8531;48.078;11.968;2022-09-09T03:13:15;15.40;99.90
16829;DHT22;8531;48.078;11.968;2022-09-09T03:15:41;15.50;99.90
16829;DHT22;8531;48.078;11.968;2022-09-09T03:18:07;15.50;99.90
16829;DHT22;8531;48.078;11.968;2022-09-09T03:20:32;15.50;99.90
16829;DHT22;8531;48.078;11.968;2022-09-09T03:22:59;15.50;99.90
16829;DHT22;8531;48.078;11.968;2022-09-09T03:25:25;15.60;99.90
16829;DHT22;8531;48.078;11.968;2022-09-09T03:27:52;15.50;99.90
16829;DHT22;8531;48.078;11.968;2022-09-09T03:30:21;15.50;99.90
16829;DHT22;8531;48.078;11.968;2022-09-09T03:32:47;15.50;99.90
16829;DHT22;8531;48.078;11.968;2022-09-09T03:35:13;15.50;99.90
16829;DHT22;8531;48.078;11.968;2022-09-09T03:37:39;15.40;99.90
16829;DHT22;8531;48.078;11.968;2022-09-09T03:40:05;15.40;99.90
16829;DHT22;8531;48.078;11.968;2022-09-09T03:42:31;15.30;99.90
16829;DHT22;8531;48.078;11.968;2022-09-09T03:44:57;15.30;99.90
16829;DHT22;8531;48.078;11.968;2022-09-09T03:47:24;15.30;99.90
16829;DHT22;8531;48.078;11.968;2022-09-09T03:49:50;15.30;99.90
16829;DHT22;8531;48.078;11.968;2022-09-09T03:52:16;15.30;99.90
16829;DHT22;8531;48.078;11.968;2022-09-09T03:54:42;15.30;99.90
16829;DHT22;8531;48.078;11.968;2022-09-09T03:57:09;15.30;99.90
16829;DHT22;8531;48.078;11.968;2022-09-09T03:59:35;15.30;99.90
16829;DHT22;8531;48.078;11.968;2022-09-09T04:02:01;15.40;99.90
16829;DHT22;8531;48.078;11.968;2022-09-09T04:04:27;15.50;99.90
16829;DHT22;8531;48.078;11.968;2022-09-09T04:06:53;15.50;99.90
16829;DHT22;8531;48.078;11.968;2022-09-09T04:09:19;15.50;99.90
16829;DHT22;8531;48.078;11.968;2022-09-09T04:11:45;15.50;99.90
16829;DHT22;8531;48.078;11.968;2022-09-09T04:14:11;15.50;99.90
16829;DHT22;8531;48.078;11.968;2022-09-09T04:16:38;15.40;99.90
16829;DHT22;8531;48.078;11.968;2022-09-09T04:19:04;15.40;99.90
16829;DHT22;8531;48.078;11.968;2022-09-09T04:21:32;15.50;99.90
16829;DHT22;8531;48.078;11.968;2022-09-09T04:23:57;15.50;99.90
16829;DHT22;8531;48.078;11.968;2022-09-09T04:26:23;15.40;99.90
16829;DHT22;8531;48.078;11.968;2022-09-09T04:28:49;15.40;99.90
16829;DHT22;8531;48.078;11.968;2022-09-09T04:31:18;15.40;99.90
16829;DHT22;8531;48.078;11.968;2022-09-09T04:33:45;15.30;99.90
16829;DHT22;8531;48.078;11.968;2022-09-09T04:36:12;15.20;99.90
16829;DHT22;8531;48.078;11.968;2022-09-09T04:38:38;15.20;99.90
16829;DHT22;8531;48.078;11.968;2022-09-09T04:41:04;15.20;99.90
16829;DHT22;8531;48.078;11.968;2022-09-09T04:43:30;15.20;99.90
16829;DHT22;8531;48.078;11.968;2022-09-09T04:45:56;15.30;99.90
16829;DHT22;8531;48.078;11.968;2022-09-09T04:48:22;15.30;99.90
16829;DHT22;8531;48.078;11.968;2022-09-09T04:50:58;15.30;99.90
16829;DHT22;8531;48.078;11.968;2022-09-09T04:53:24;15.20;99.90
16829;DHT22;8531;48.078;11.968;2022-09-09T04:55:51;15.10;99.90
16829;DHT22;8531;48.078;11.968;2022-09-09T04:58:17;15.10;99.90
16829;DHT22;8531;48.078;11.968;2022-09-09T05:00:44;15.10;99.90
16829;DHT22;8531;48.078;11.968;2022-09-09T05:03:09;15.20;99.90
16829;DHT22;8531;48.078;11.968;2022-09-09T05:05:35;15.20;99.90
16829;DHT22;8531;48.078;11.968;2022-09-09T05:08:03;15.20;99.90
16829;DHT22;8531;48.078;11.968;2022-09-09T05:10:30;15.10;99.90
16829;DHT22;8531;48.078;11.968;2022-09-09T05:12:55;15.20;99.90
16829;DHT22;8531;48.078;11.968;2022-09-09T05:15:21;15.20;99.90
16829;DHT22;8531;48.078;11.968;2022-09-09T05:17:47;15.20;99.90
16829;DHT22;8531;48.078;11.968;2022-09-09T05:20:13;15.20;99.90
16829;DHT22;8531;48.078;11.968;2022-09-09T05:22:38;15.20;99.90
16829;DHT22;8531;48.078;11.968;2022-09-09T05:25:04;15.20;99.90
16829;DHT22;8531;48.078;11.968;2022-09-09T05:27:30;15.20;99.90
16829;DHT22;8531;48.078;11.968;2022-09-09T05:29:57;15.20;99.90
16829;DHT22;8531;48.078;11.968;2022-09-09T05:32:23;15.20;99.90
16829;DHT22;8531;48.078;11.968;2022-09-09T05:34:49;15.30;99.90
16829;DHT22;8531;48.078;11.968;2022-09-09T05:37:15;15.30;99.90
16829;DHT22;8531;48.078;11.968;2022-09-09T05:39:42;15.40;99.90
16829;DHT22;8531;48.078;11.968;2022-09-09T05:42:07;15.40;99.90
16829;DHT22;8531;48.078;11.968;2022-09-09T05:44:33;15.50;99.90
16829;DHT22;8531;48.078;11.968;2022-09-09T05:46:59;15.60;99.90
16829;DHT22;8531;48.078;11.968;2022-09-09T05:49:24;15.60;99.90
16829;DHT22;8531;48.078;11.968;2022-09-09T05:51:50;15.70;99.90
16829;DHT22;8531;48.078;11.968;2022-09-09T05:54:16;15.80;99.90
16829;DHT22;8531;48.078;11.968;2022-09-09T05:56:42;15.80;99.90
16829;DHT22;8531;48.078;11.968;2022-09-09T05:59:08;15.90;99.90
16829;DHT22;8531;48.078;11.968;2022-09-09T06:01:36;15.80;99.90
16829;DHT22;8531;48.078;11.968;2022-09-09T06:04:05;15.80;99.90
16829;DHT22;8531;48.078;11.968;2022-09-09T06:06:34;15.80;99.90
16829;DHT22;8531;48.078;11.968;2022-09-09T06:09:05;15.90;99.90
16829;DHT22;8531;48.078;11.968;2022-09-09T06:11:33;15.80;99.90
16829;DHT22;8531;48.078;11.968;2022-09-09T06:13:59;15.80;99.90
16829;DHT22;8531;48.078;11.968;2022-09-09T06:16:27;15.80;99.90
16829;DHT22;8531;48.078;11.968;2022-09-09T06:18:54;15.70;99.90
16829;DHT22;8531;48.078;11.968;2022-09-09T06:21:23;15.70;99.90
16829;DHT22;8531;48.078;11.968;2022-09-09T06:23:49;15.60;99.90
16829;DHT22;8531;48.078;11.968;2022-09-09T06:26:24;15.70;99.90
16829;DHT22;8531;48.078;11.968;2022-09-09T06:28:52;15.80;99.90
16829;DHT22;8531;48.078;11.968;2022-09-09T06:31:20;15.60;99.90
16829;DHT22;8531;48.078;11.968;2022-09-09T06:33:51;15.60;99.90
16829;DHT22;8531;48.078;11.968;2022-09-09T06:36:25;15.60;99.90
16829;DHT22;8531;48.078;11.968;2022-09-09T06:38:50;15.60;99.90
16829;DHT22;8531;48.078;11.968;2022-09-09T06:41:18;15.70;99.90
16829;DHT22;8531;48.078;11.968;2022-09-09T06:43:45;15.60;99.90
16829;DHT22;8531;48.078;11.968;2022-09-09T06:46:18;15.60;99.90
16829;DHT22;8531;48.078;11.968;2022-09-09T06:48:45;15.50;99.90
16829;DHT22;8531;48.078;11.968;2022-09-09T06:51:12;15.50;99.90
16829;DHT22;8531;48.078;11.968;2022-09-09T06:53:40;15.50;99.90
16829;DHT22;8531;48.078;11.968;2022-09-09T06:58:52;15.60;99.90
16829;DHT22;8531;48.078;11.968;2022-09-09T07:01:26;15.60;99.90
16829;DHT22;8531;48.078;11.968;2022-09-09T07:03:54;15.70;99.90
16829;DHT22;8531;48.078;11.968;2022-09-09T07:06:23;15.80;99.90
16829;DHT22;8531;48.078;11.968;2022-09-09T07:08:54;15.80;99.90
16829;DHT22;8531;48.078;11.968;2022-09-09T07:11:21;15.80;99.90
16829;DHT22;8531;48.078;11.968;2022-09-09T07:13:48;15.80;99.90
16829;DHT22;8531;48.078;11.968;2022-09-09T07:16:16;15.80;99.90
16829;DHT22;8531;48.078;11.968;2022-09-09T07:18:42;15.80;99.90
16829;DHT22;8531;48.078;11.968;2022-09-09T07:21:10;15.70;99.90
16829;DHT22;8531;48.078;11.968;2022-09-09T07:23:35;15.70;99.90
16829;DHT22;8531;48.078;11.968;2022-09-09T07:26:02;15.70;99.90
16829;DHT22;8531;48.078;11.968;2022-09-09T07:28:28;15.80;99.90
16829;DHT22;8531;48.078;11.968;2022-09-09T07:30:58;15.90;99.90
16829;DHT22;8531;48.078;11.968;2022-09-09T07:33:25;16.00;99.90
16829;DHT22;8531;48.078;11.968;2022-09-09T07:35:51;16.10;99.90
16829;DHT22;8531;48.078;11.968;2022-09-09T07:38:18;16.10;99.90
16829;DHT22;8531;48.078;11.968;2022-09-09T07:40:45;16.00;99.90
16829;DHT22;8531;48.078;11.968;2022-09-09T07:43:11;16.10;99.90
16829;DHT22;8531;48.078;11.968;2022-09-09T07:45:37;16.10;99.90
16829;DHT22;8531;48.078;11.968;2022-09-09T07:48:20;16.10;99.90
16829;DHT22;8531;48.078;11.968;2022-09-09T07:50:51;16.10;99.90
16829;DHT22;8531;48.078;11.968;2022-09-09T07:53:16;16.10;99.90
16829;DHT22;8531;48.078;11.968;2022-09-09T07:55:42;16.10;99.90
16829;DHT22;8531;48.078;11.968;2022-09-09T07:58:08;16.10;99.90
16829;DHT22;8531;48.078;11.968;2022-09-09T08:00:34;16.20;99.90
16829;DHT22;8531;48.078;11.968;2022-09-09T08:03:00;16.20;99.90
16829;DHT22;8531;48.078;11.968;2022-09-09T08:05:27;16.20;99.90
16829;DHT22;8531;48.078;11.968;2022-09-09T08:07:53;16.20;99.90
16829;DHT22;8531;48.078;11.968;2022-09-09T08:10:19;16.20;99.90
16829;DHT22;8531;48.078;11.968;2022-09-09T08:12:45;16.30;99.90
16829;DHT22;8531;48.078;11.968;2022-09-09T08:15:10;16.40;99.90
16829;DHT22;8531;48.078;11.968;2022-09-09T08:17:36;16.30;99.90
16829;DHT22;8531;48.078;11.968;2022-09-09T08:20:03;16.30;99.90
16829;DHT22;8531;48.078;11.968;2022-09-09T08:22:30;16.20;99.90
16829;DHT22;8531;48.078;11.968;2022-09-09T08:24:56;16.20;99.90
16829;DHT22;8531;48.078;11.968;2022-09-09T08:27:22;16.20;99.90
16829;DHT22;8531;48.078;11.968;2022-09-09T08:29:48;16.30;99.90
16829;DHT22;8531;48.078;11.968;2022-09-09T08:32:14;16.30;99.90
16829;DHT22;8531;48.078;11.968;2022-09-09T08:34:39;16.30;99.90
16829;DHT22;8531;48.078;11.968;2022-09-09T08:37:06;16.30;99.90
16829;DHT22;8531;48.078;11.968;2022-09-09T08:39:32;16.10;99.90
16829;DHT22;8531;48.078;11.968;2022-09-09T08:52:27;16.20;99.90
16829;DHT22;8531;48.078;11.968;2022-09-09T08:54:59;16.10;99.90
16829;DHT22;8531;48.078;11.968;2022-09-09T08:57:28;16.20;99.90
16829;DHT22;8531;48.078;11.968;2022-09-09T08:59:55;16.20;99.90
16829;DHT22;8531;48.078;11.968;2022-09-09T09:06:08;16.20;99.90
16829;DHT22;8531;48.078;11.968;2022-09-09T09:11:54;16.10;99.90
16829;DHT22;8531;48.078;11.968;2022-09-09T09:14:23;16.20;99.90
16829;DHT22;8531;48.078;11.968;2022-09-09T09:19:28;16.00;99.90
16829;DHT22;8531;48.078;11.968;2022-09-09T09:22:21;16.00;99.90
16829;DHT22;8531;48.078;11.968;2022-09-09T09:25:19;16.00;99.90
16829;DHT22;8531;48.078;11.968;2022-09-09T09:30:29;16.00;99.90
16829;DHT22;8531;48.078;11.968;2022-09-09T09:33:03;15.90;99.90
16829;DHT22;8531;48.078;11.968;2022-09-09T09:35:31;16.00;99.90
16829;DHT22;8531;48.078;11.968;2022-09-09T09:37:57;15.90;99.90
16829;DHT22;8531;48.078;11.968;2022-09-09T09:40:23;16.00;99.90
16829;DHT22;8531;48.078;11.968;2022-09-09T09:43:00;16.10;99.90
16829;DHT22;8531;48.078;11.968;2022-09-09T09:45:41;16.10;99.90
16829;DHT22;8531;48.078;11.968;2022-09-09T09:48:13;16.00;99.90
16829;DHT22;8531;48.078;11.968;2022-09-09T09:51:05;16.10;99.90
16829;DHT22;8531;48.078;11.968;2022-09-09T09:53:35;16.00;99.90
16829;DHT22;8531;48.078;11.968;2022-09-09T09:56:04;16.10;99.90
16829;DHT22;8531;48.078;11.968;2022-09-09T09:58:52;16.10;99.90
16829;DHT22;8531;48.078;11.968;2022-09-09T10:04:17;16.10;99.90
16829;DHT22;8531;48.078;11.968;2022-09-09T10:06:44;16.00;99.90
16829;DHT22;8531;48.078;11.968;2022-09-09T10:09:27;16.10;99.90
16829;DHT22;8531;48.078;11.968;2022-09-09T10:15:02;16.10;99.90
16829;DHT22;8531;48.078;11.968;2022-09-09T10:20:58;16.10;99.90
16829;DHT22;8531;48.078;11.968;2022-09-09T10:24:09;16.10;99.90
16829;DHT22;8531;48.078;11.968;2022-09-09T10:27:11;16.20;99.90
16829;DHT22;8531;48.078;11.968;2022-09-09T10:35:31;16.20;99.90
16829;DHT22;8531;48.078;11.968;2022-09-09T10:55:14;16.10;99.90
16829;DHT22;8531;48.078;11.968;2022-09-09T10:57:47;16.20;99.90
16829;DHT22;8531;48.078;11.968;2022-09-09T11:00:20;16.00;99.90
16829;DHT22;8531;48.078;11.968;2022-09-09T11:03:02;16.10;99.90
16829;DHT22;8531;48.078;11.968;2022-09-09T11:05:39;16.00;99.90
16829;DHT22;8531;48.078;11.968;2022-09-09T11:08:19;15.90;99.90
16829;DHT22;8531;48.078;11.968;2022-09-09T11:11:24;15.90;99.90
16829;DHT22;8531;48.078;11.968;2022-09-09T11:13:53;16.00;99.90
16829;DHT22;8531;48.078;11.968;2022-09-09T11:21:52;16.10;99.90
16829;DHT22;8531;48.078;11.968;2022-09-09T11:27:02;16.00;99.90
16829;DHT22;8531;48.078;11.968;2022-09-09T11:30:13;16.10;99.90
16829;DHT22;8531;48.078;11.968;2022-09-09T11:36:02;16.10;99.90
16829;DHT22;8531;48.078;11.968;2022-09-09T11:38:59;16.00;99.90
16829;DHT22;8531;48.078;11.968;2022-09-09T11:41:34;16.00;99.90
16829;DHT22;8531;48.078;11.968;2022-09-09T11:44:16;15.90;99.90
16829;DHT22;8531;48.078;11.968;2022-09-09T11:46:42;16.10;99.90
16829;DHT22;8531;48.078;11.968;2022-09-09T11:49:30;16.00;99.90
16829;DHT22;8531;48.078;11.968;2022-09-09T11:52:41;16.10;99.90
16829;DHT22;8531;48.078;11.968;2022-09-09T11:55:24;16.10;99.90
16829;DHT22;8531;48.078;11.968;2022-09-09T11:58:04;16.10;99.90
16829;DHT22;8531;48.078;11.968;2022-09-09T12:00:43;16.10;99.90
16829;DHT22;8531;48.078;11.968;2022-09-09T12:03:36;16.10;99.90
16829;DHT22;8531;48.078;11.968;2022-09-09T12:08:42;16.20;99.90
16829;DHT22;8531;48.078;11.968;2022-09-09T12:11:08;16.20;99.90
16829;DHT22;8531;48.078;11.968;2022-09-09T12:13:34;16.30;99.90
16829;DHT22;8531;48.078;11.968;2022-09-09T12:16:01;16.30;99.90
16829;DHT22;8531;48.078;11.968;2022-09-09T12:18:38;16.40;99.90
16829;DHT22;8531;48.078;11.968;2022-09-09T12:23:52;16.60;99.90
16829;DHT22;8531;48.078;11.968;2022-09-09T12:32:00;16.70;99.90
16829;DHT22;8531;48.078;11.968;2022-09-09T12:34:38;16.80;99.90
16829;DHT22;8531;48.078;11.968;2022-09-09T12:40:02;17.00;99.90
16829;DHT22;8531;48.078;11.968;2022-09-09T12:42:30;17.00;99.90
16829;DHT22;8531;48.078;11.968;2022-09-09T12:44:59;17.00;99.90
16829;DHT22;8531;48.078;11.968;2022-09-09T12:48:00;17.00;99.90
16829;DHT22;8531;48.078;11.968;2022-09-09T12:50:37;17.00;99.90
16829;DHT22;8531;48.078;11.968;2022-09-09T12:53:12;17.00;99.90
16829;DHT22;8531;48.078;11.968;2022-09-09T12:55:51;17.10;99.90
16829;DHT22;8531;48.078;11.968;2022-09-09T12:58:18;17.20;99.90
16829;DHT22;8531;48.078;11.968;2022-09-09T13:00:55;17.20;99.90
16829;DHT22;8531;48.078;11.968;2022-09-09T13:03:22;17.20;99.90
16829;DHT22;8531;48.078;11.968;2022-09-09T13:05:48;17.20;99.90
16829;DHT22;8531;48.078;11.968;2022-09-09T13:08:15;17.20;99.90
16829;DHT22;8531;48.078;11.968;2022-09-09T13:11:00;17.20;99.90
16829;DHT22;8531;48.078;11.968;2022-09-09T13:16:02;17.40;99.90
16829;DHT22;8531;48.078;11.968;2022-09-09T13:18:34;17.30;99.90
16829;DHT22;8531;48.078;11.968;2022-09-09T13:21:01;17.40;99.90
16829;DHT22;8531;48.078;11.968;2022-09-09T13:23:29;17.60;99.90
16829;DHT22;8531;48.078;11.968;2022-09-09T13:25:58;17.60;99.90
16829;DHT22;8531;48.078;11.968;2022-09-09T13:28:27;17.70;99.90
16829;DHT22;8531;48.078;11.968;2022-09-09T13:31:00;17.50;99.90
16829;DHT22;8531;48.078;11.968;2022-09-09T13:33:33;17.40;99.90
16829;DHT22;8531;48.078;11.968;2022-09-09T13:38:36;17.50;99.90
16829;DHT22;8531;48.078;11.968;2022-09-09T13:41:05;17.50;99.90
16829;DHT22;8531;48.078;11.968;2022-09-09T13:43:37;17.50;99.90
16829;DHT22;8531;48.078;11.968;2022-09-09T13:46:28;17.60;99.90
16829;DHT22;8531;48.078;11.968;2022-09-09T13:49:17;17.60;99.90
16829;DHT22;8531;48.078;11.968;2022-09-09T13:51:47;17.60;99.90
16829;DHT22;8531;48.078;11.968;2022-09-09T13:54:16;17.60;99.90
16829;DHT22;8531;48.078;11.968;2022-09-09T13:56:42;17.70;99.90
16829;DHT22;8531;48.078;11.968;2022-09-09T13:59:16;17.60;99.90
16829;DHT22;8531;48.078;11.968;2022-09-09T14:01:42;17.60;99.90
16829;DHT22;8531;48.078;11.968;2022-09-09T14:04:08;17.50;99.90
16829;DHT22;8531;48.078;11.968;2022-09-09T14:06:35;17.40;99.90
16829;DHT22;8531;48.078;11.968;2022-09-09T14:09:04;17.50;99.90
16829;DHT22;8531;48.078;11.968;2022-09-09T14:11:30;17.40;99.90
16829;DHT22;8531;48.078;11.968;2022-09-09T14:13:55;17.40;99.90
16829;DHT22;8531;48.078;11.968;2022-09-09T14:16:21;17.40;99.90
16829;DHT22;8531;48.078;11.968;2022-09-09T14:18:47;17.40;99.90
16829;DHT22;8531;48.078;11.968;2022-09-09T14:21:13;17.30;99.90
16829;DHT22;8531;48.078;11.968;2022-09-09T14:23:40;17.40;99.90
16829;DHT22;8531;48.078;11.968;2022-09-09T14:26:06;17.30;99.90
16829;DHT22;8531;48.078;11.968;2022-09-09T14:28:32;17.30;99.90
16829;DHT22;8531;48.078;11.968;2022-09-09T14:31:03;17.20;99.90
16829;DHT22;8531;48.078;11.968;2022-09-09T14:33:29;17.30;99.90
16829;DHT22;8531;48.078;11.968;2022-09-09T14:36:00;17.30;99.90
16829;DHT22;8531;48.078;11.968;2022-09-09T14:38:30;17.20;99.90
16829;DHT22;8531;48.078;11.968;2022-09-09T14:40:56;17.10;99.90
16829;DHT22;8531;48.078;11.968;2022-09-09T14:43:21;17.20;99.90
16829;DHT22;8531;48.078;11.968;2022-09-09T14:45:47;17.20;99.90
16829;DHT22;8531;48.078;11.968;2022-09-09T14:48:17;17.30;99.90
16829;DHT22;8531;48.078;11.968;2022-09-09T14:50:43;17.40;99.90
16829;DHT22;8531;48.078;11.968;2022-09-09T14:53:09;17.30;99.90
16829;DHT22;8531;48.078;11.968;2022-09-09T14:55:36;17.30;99.90
16829;DHT22;8531;48.078;11.968;2022-09-09T14:58:03;17.40;99.90
16829;DHT22;8531;48.078;11.968;2022-09-09T15:00:29;17.40;99.90
16829;DHT22;8531;48.078;11.968;2022-09-09T15:02:55;17.40;99.90
16829;DHT22;8531;48.078;11.968;2022-09-09T15:05:22;17.40;99.90
16829;DHT22;8531;48.078;11.968;2022-09-09T15:07:47;17.40;99.90
16829;DHT22;8531;48.078;11.968;2022-09-09T15:10:14;17.50;99.90
16829;DHT22;8531;48.078;11.968;2022-09-09T15:12:40;17.60;99.90
16829;DHT22;8531;48.078;11.968;2022-09-09T15:15:08;17.70;99.90
16829;DHT22;8531;48.078;11.968;2022-09-09T15:17:34;17.70;99.90
16829;DHT22;8531;48.078;11.968;2022-09-09T15:20:00;17.70;99.90
16829;DHT22;8531;48.078;11.968;2022-09-09T15:22:26;17.70;99.90
16829;DHT22;8531;48.078;11.968;2022-09-09T15:24:52;17.60;99.90
16829;DHT22;8531;48.078;11.968;2022-09-09T15:27:17;17.70;99.90
16829;DHT22;8531;48.078;11.968;2022-09-09T15:29:43;17.70;99.90
16829;DHT22;8531;48.078;11.968;2022-09-09T15:32:09;17.70;99.90
16829;DHT22;8531;48.078;11.968;2022-09-09T15:34:35;17.70;99.90
16829;DHT22;8531;48.078;11.968;2022-09-09T15:37:01;17.60;99.90
16829;DHT22;8531;48.078;11.968;2022-09-09T15:39:26;17.60;99.90
16829;DHT22;8531;48.078;11.968;2022-09-09T15:41:52;17.60;99.90
16829;DHT22;8531;48.078;11.968;2022-09-09T15:44:18;17.60;99.90
16829;DHT22;8531;48.078;11.968;2022-09-09T15:46:50;17.60;99.90
16829;DHT22;8531;48.078;11.968;2022-09-09T15:49:21;17.60;99.90
16829;DHT22;8531;48.078;11.968;2022-09-09T15:51:58;17.60;99.90
16829;DHT22;8531;48.078;11.968;2022-09-09T15:54:25;17.50;99.90
16829;DHT22;8531;48.078;11.968;2022-09-09T15:56:56;17.50;99.90
16829;DHT22;8531;48.078;11.968;2022-09-09T15:59:23;17.50;99.90
16829;DHT22;8531;48.078;11.968;2022-09-09T16:01:49;17.50;99.90
16829;DHT22;8531;48.078;11.968;2022-09-09T16:04:17;17.50;99.90
16829;DHT22;8531;48.078;11.968;2022-09-09T16:06:50;17.40;99.90
16829;DHT22;8531;48.078;11.968;2022-09-09T16:09:15;17.40;99.90
16829;DHT22;8531;48.078;11.968;2022-09-09T16:11:41;17.40;99.90
16829;DHT22;8531;48.078;11.968;2022-09-09T16:14:07;17.40;99.90
16829;DHT22;8531;48.078;11.968;2022-09-09T16:16:33;17.30;99.90
16829;DHT22;8531;48.078;11.968;2022-09-09T16:19:03;17.40;99.90
16829;DHT22;8531;48.078;11.968;2022-09-09T16:21:33;17.30;99.90
16829;DHT22;8531;48.078;11.968;2022-09-09T16:24:01;17.20;99.90
16829;DHT22;8531;48.078;11.968;2022-09-09T16:26:29;17.20;99.90
16829;DHT22;8531;48.078;11.968;2022-09-09T16:28:55;17.10;99.90
16829;DHT22;8531;48.078;11.968;2022-09-09T16:31:24;17.10;99.90
16829;DHT22;8531;48.078;11.968;2022-09-09T16:33:50;17.20;99.90
16829;DHT22;8531;48.078;11.968;2022-09-09T16:36:18;17.20;99.90
16829;DHT22;8531;48.078;11.968;2022-09-09T16:38:44;17.10;99.90
16829;DHT22;8531;48.078;11.968;2022-09-09T16:41:12;17.10;99.90
16829;DHT22;8531;48.078;11.968;2022-09-09T16:43:38;17.10;99.90
16829;DHT22;8531;48.078;11.968;2022-09-09T16:46:15;17.10;99.90
16829;DHT22;8531;48.078;11.968;2022-09-09T16:48:42;17.00;99.90
16829;DHT22;8531;48.078;11.968;2022-09-09T16:51:21;16.90;99.90
16829;DHT22;8531;48.078;11.968;2022-09-09T16:53:48;16.90;99.90
16829;DHT22;8531;48.078;11.968;2022-09-09T16:56:26;16.90;99.90
16829;DHT22;8531;48.078;11.968;2022-09-09T16:58:57;16.90;99.90
16829;DHT22;8531;48.078;11.968;2022-09-09T17:01:24;16.80;99.90
16829;DHT22;8531;48.078;11.968;2022-09-09T17:03:53;16.80;99.90
16829;DHT22;8531;48.078;11.968;2022-09-09T17:06:19;16.80;99.90
16829;DHT22;8531;48.078;11.968;2022-09-09T17:08:45;16.80;99.90
16829;DHT22;8531;48.078;11.968;2022-09-09T17:11:14;16.90;99.90
16829;DHT22;8531;48.078;11.968;2022-09-09T17:13:43;17.00;99.90
16829;DHT22;8531;48.078;11.968;2022-09-09T17:16:10;16.90;99.90
16829;DHT22;8531;48.078;11.968;2022-09-09T17:18:38;16.90;99.90
16829;DHT22;8531;48.078;11.968;2022-09-09T17:21:12;16.80;99.90
16829;DHT22;8531;48.078;11.968;2022-09-09T17:23:39;16.80;99.90
16829;DHT22;8531;48.078;11.968;2022-09-09T17:26:07;16.70;99.90
16829;DHT22;8531;48.078;11.968;2022-09-09T17:28:34;16.70;99.90
16829;DHT22;8531;48.078;11.968;2022-09-09T17:31:01;16.70;99.90
16829;DHT22;8531;48.078;11.968;2022-09-09T17:33:32;16.70;99.90
16829;DHT22;8531;48.078;11.968;2022-09-09T17:35:59;16.70;99.90
16829;DHT22;8531;48.078;11.968;2022-09-09T17:38:27;16.70;99.90
16829;DHT22;8531;48.078;11.968;2022-09-09T17:41:23;16.60;99.90
16829;DHT22;8531;48.078;11.968;2022-09-09T17:43:49;16.60;99.90
16829;DHT22;8531;48.078;11.968;2022-09-09T17:46:21;16.60;99.90
16829;DHT22;8531;48.078;11.968;2022-09-09T17:48:49;16.60;99.90
16829;DHT22;8531;48.078;11.968;2022-09-09T17:51:18;16.60;99.90